sensor_id;sensor_type;location;lat;lon;timestamp;P1;durP1;ratioP1;P2;durP2;ratioP2
63370;SDS011;49504;48.336;14.472;2023-04-03T00:03:01;3.10;;;1.15;;
63370;SDS011;49504;48.336;14.472;2023-04-03T00:06:24;2.60;;;1.10;;
63370;SDS011;49504;48.336;14.472;2023-04-03T00:09:45;2.60;;;1.05;;
63370;SDS011;49504;48.336;14.472;2023-04-03T00:13:07;2.75;;;1.23;;
63370;SDS011;49504;48.336;14.472;2023-04-03T00:16:29;2.72;;;1.13;;
63370;SDS011;49504;48.336;14.472;2023-04-03T00:19:50;2.08;;;0.73;;
63370;SDS011;49504;48.336;14.472;2023-04-03T00:23:12;2.60;;;1.05;;
63370;SDS011;49504;48.336;14.472;2023-04-03T00:26:33;2.58;;;1.20;;
63370;SDS011;49504;48.336;14.472;2023-04-03T00:29:55;2.38;;;0.88;;
63370;SDS011;49504;48.336;14.472;2023-04-03T00:33:16;2.50;;;0.90;;
63370;SDS011;49504;48.336;14.472;2023-04-03T00:36:37;2.08;;;0.75;;
63370;SDS011;49504;48.336;14.472;2023-04-03T00:39:59;2.40;;;0.93;;
63370;SDS011;49504;48.336;14.472;2023-04-03T00:43:22;3.13;;;1.08;;
63370;SDS011;49504;48.336;14.472;2023-04-03T00:46:46;2.38;;;1.08;;
63370;SDS011;49504;48.336;14.472;2023-04-03T00:50:07;2.17;;;0.90;;
63370;SDS011;49504;48.336;14.472;2023-04-03T00:53:30;2.20;;;0.90;;
63370;SDS011;49504;48.336;14.472;2023-04-03T00:56:55;2.33;;;0.90;;
63370;SDS011;49504;48.336;14.472;2023-04-03T01:00:19;2.15;;;0.82;;
63370;SDS011;49504;48.336;14.472;2023-04-03T01:04:43;3.13;;;1.15;;
63370;SDS011;49504;48.336;14.472;2023-04-03T01:08:04;2.80;;;1.00;;
63370;SDS011;49504;48.336;14.472;2023-04-03T01:11:27;2.08;;;0.88;;
63370;SDS011;49504;48.336;14.472;2023-04-03T01:14:49;2.63;;;1.15;;
63370;SDS011;49504;48.336;14.472;2023-04-03T01:18:12;2.90;;;1.00;;
63370;SDS011;49504;48.336;14.472;2023-04-03T01:25:36;2.70;;;1.08;;
63370;SDS011;49504;48.336;14.472;2023-04-03T01:29:01;2.17;;;0.80;;
63370;SDS011;49504;48.336;14.472;2023-04-03T01:32:24;2.58;;;0.90;;
63370;SDS011;49504;48.336;14.472;2023-04-03T01:35:45;2.38;;;0.95;;
63370;SDS011;49504;48.336;14.472;2023-04-03T01:39:07;2.75;;;1.20;;
63370;SDS011;49504;48.336;14.472;2023-04-03T01:42:28;2.53;;;0.93;;
63370;SDS011;49504;48.336;14.472;2023-04-03T01:45:49;2.40;;;0.90;;
63370;SDS011;49504;48.336;14.472;2023-04-03T01:49:12;2.50;;;0.88;;
63370;SDS011;49504;48.336;14.472;2023-04-03T01:52:34;2.30;;;0.80;;
63370;SDS011;49504;48.336;14.472;2023-04-03T01:55:55;1.98;;;0.77;;
63370;SDS011;49504;48.336;14.472;2023-04-03T01:59:16;2.55;;;0.93;;
63370;SDS011;49504;48.336;14.472;2023-04-03T02:02:38;2.25;;;0.77;;
63370;SDS011;49504;48.336;14.472;2023-04-03T02:06:01;2.63;;;0.90;;
63370;SDS011;49504;48.336;14.472;2023-04-03T02:09:22;2.35;;;0.88;;
63370;SDS011;49504;48.336;14.472;2023-04-03T02:12:43;2.30;;;1.00;;
63370;SDS011;49504;48.336;14.472;2023-04-03T02:16:08;2.58;;;0.98;;
63370;SDS011;49504;48.336;14.472;2023-04-03T02:22:52;1.98;;;0.70;;
63370;SDS011;49504;48.336;14.472;2023-04-03T02:26:14;2.08;;;0.82;;
63370;SDS011;49504;48.336;14.472;2023-04-03T02:29:39;2.20;;;0.80;;
63370;SDS011;49504;48.336;14.472;2023-04-03T02:33:00;2.72;;;0.88;;
63370;SDS011;49504;48.336;14.472;2023-04-03T02:36:21;2.88;;;1.02;;
63370;SDS011;49504;48.336;14.472;2023-04-03T02:39:49;2.90;;;1.10;;
63370;SDS011;49504;48.336;14.472;2023-04-03T02:43:10;2.35;;;0.80;;
63370;SDS011;49504;48.336;14.472;2023-04-03T02:46:32;2.45;;;0.90;;
63370;SDS011;49504;48.336;14.472;2023-04-03T02:49:53;2.55;;;0.80;;
63370;SDS011;49504;48.336;14.472;2023-04-03T02:53:14;2.70;;;1.10;;
63370;SDS011;49504;48.336;14.472;2023-04-03T02:56:37;2.08;;;0.82;;
63370;SDS011;49504;48.336;14.472;2023-04-03T02:59:58;2.20;;;0.90;;
63370;SDS011;49504;48.336;14.472;2023-04-03T03:03:20;2.17;;;0.80;;
63370;SDS011;49504;48.336;14.472;2023-04-03T03:06:41;2.55;;;0.93;;
63370;SDS011;49504;48.336;14.472;2023-04-03T03:10:02;2.38;;;0.93;;
63370;SDS011;49504;48.336;14.472;2023-04-03T03:13:25;2.63;;;0.98;;
63370;SDS011;49504;48.336;14.472;2023-04-03T03:16:46;2.10;;;0.63;;
63370;SDS011;49504;48.336;14.472;2023-04-03T03:20:08;2.17;;;0.85;;
63370;SDS011;49504;48.336;14.472;2023-04-03T03:23:31;2.03;;;0.73;;
63370;SDS011;49504;48.336;14.472;2023-04-03T03:26:52;2.03;;;0.80;;
63370;SDS011;49504;48.336;14.472;2023-04-03T03:30:15;2.05;;;0.90;;
63370;SDS011;49504;48.336;14.472;2023-04-03T03:33:37;2.38;;;0.70;;
63370;SDS011;49504;48.336;14.472;2023-04-03T03:36:58;2.78;;;1.05;;
63370;SDS011;49504;48.336;14.472;2023-04-03T03:40:19;1.70;;;0.60;;
63370;SDS011;49504;48.336;14.472;2023-04-03T03:43:40;3.90;;;0.93;;
63370;SDS011;49504;48.336;14.472;2023-04-03T03:47:03;2.28;;;0.80;;
63370;SDS011;49504;48.336;14.472;2023-04-03T03:50:24;2.65;;;1.00;;
63370;SDS011;49504;48.336;14.472;2023-04-03T03:53:46;2.00;;;0.85;;
63370;SDS011;49504;48.336;14.472;2023-04-03T03:57:10;2.13;;;0.80;;
63370;SDS011;49504;48.336;14.472;2023-04-03T04:00:31;3.53;;;0.98;;
63370;SDS011;49504;48.336;14.472;2023-04-03T04:03:55;2.25;;;0.80;;
63370;SDS011;49504;48.336;14.472;2023-04-03T04:07:20;1.90;;;0.68;;
63370;SDS011;49504;48.336;14.472;2023-04-03T04:10:42;2.20;;;0.80;;
63370;SDS011;49504;48.336;14.472;2023-04-03T04:14:05;3.00;;;0.95;;
63370;SDS011;49504;48.336;14.472;2023-04-03T04:17:27;2.33;;;0.70;;
63370;SDS011;49504;48.336;14.472;2023-04-03T04:20:50;3.08;;;0.95;;
63370;SDS011;49504;48.336;14.472;2023-04-03T04:24:12;2.80;;;1.08;;
63370;SDS011;49504;48.336;14.472;2023-04-03T04:27:33;2.30;;;1.05;;
63370;SDS011;49504;48.336;14.472;2023-04-03T04:30:56;2.58;;;0.90;;
63370;SDS011;49504;48.336;14.472;2023-04-03T04:34:19;2.35;;;0.75;;
63370;SDS011;49504;48.336;14.472;2023-04-03T04:37:43;2.55;;;1.00;;
63370;SDS011;49504;48.336;14.472;2023-04-03T04:41:04;4.00;;;0.98;;
63370;SDS011;49504;48.336;14.472;2023-04-03T04:44:26;4.05;;;0.98;;
63370;SDS011;49504;48.336;14.472;2023-04-03T04:47:47;3.47;;;1.02;;
63370;SDS011;49504;48.336;14.472;2023-04-03T04:51:09;4.63;;;1.05;;
63370;SDS011;49504;48.336;14.472;2023-04-03T04:54:33;4.18;;;0.93;;
63370;SDS011;49504;48.336;14.472;2023-04-03T04:57:54;2.80;;;0.90;;
63370;SDS011;49504;48.336;14.472;2023-04-03T05:01:16;2.72;;;1.10;;
63370;SDS011;49504;48.336;14.472;2023-04-03T05:04:48;3.10;;;1.08;;
63370;SDS011;49504;48.336;14.472;2023-04-03T05:08:15;2.88;;;0.90;;
63370;SDS011;49504;48.336;14.472;2023-04-03T05:11:39;3.22;;;1.10;;
63370;SDS011;49504;48.336;14.472;2023-04-03T05:15:02;2.38;;;1.20;;
63370;SDS011;49504;48.336;14.472;2023-04-03T05:18:25;2.08;;;0.75;;
63370;SDS011;49504;48.336;14.472;2023-04-03T05:21:50;3.53;;;1.00;;
63370;SDS011;49504;48.336;14.472;2023-04-03T05:25:12;2.95;;;0.88;;
63370;SDS011;49504;48.336;14.472;2023-04-03T05:28:38;2.83;;;1.03;;
63370;SDS011;49504;48.336;14.472;2023-04-03T05:32:01;4.45;;;1.20;;
63370;SDS011;49504;48.336;14.472;2023-04-03T05:35:24;3.28;;;1.10;;
63370;SDS011;49504;48.336;14.472;2023-04-03T05:39:23;3.20;;;1.35;;
63370;SDS011;49504;48.336;14.472;2023-04-03T05:42:45;5.03;;;1.17;;
63370;SDS011;49504;48.336;14.472;2023-04-03T05:46:09;4.28;;;1.27;;
63370;SDS011;49504;48.336;14.472;2023-04-03T05:49:32;4.32;;;1.50;;
63370;SDS011;49504;48.336;14.472;2023-04-03T05:52:54;3.85;;;1.48;;
63370;SDS011;49504;48.336;14.472;2023-04-03T05:56:21;5.07;;;1.85;;
63370;SDS011;49504;48.336;14.472;2023-04-03T05:59:43;4.57;;;1.40;;
63370;SDS011;49504;48.336;14.472;2023-04-03T06:03:06;5.22;;;1.45;;
63370;SDS011;49504;48.336;14.472;2023-04-03T06:06:41;9.55;;;2.28;;
63370;SDS011;49504;48.336;14.472;2023-04-03T06:10:05;10.05;;;2.53;;
63370;SDS011;49504;48.336;14.472;2023-04-03T06:13:29;8.77;;;2.28;;
63370;SDS011;49504;48.336;14.472;2023-04-03T06:16:50;8.07;;;2.90;;
63370;SDS011;49504;48.336;14.472;2023-04-03T06:20:12;8.52;;;2.33;;
63370;SDS011;49504;48.336;14.472;2023-04-03T06:23:33;10.63;;;3.05;;
63370;SDS011;49504;48.336;14.472;2023-04-03T06:26:54;6.38;;;2.47;;
63370;SDS011;49504;48.336;14.472;2023-04-03T06:30:17;7.97;;;2.67;;
63370;SDS011;49504;48.336;14.472;2023-04-03T06:33:38;7.32;;;2.20;;
63370;SDS011;49504;48.336;14.472;2023-04-03T06:36:59;7.70;;;2.25;;
63370;SDS011;49504;48.336;14.472;2023-04-03T06:40:22;9.90;;;2.85;;
63370;SDS011;49504;48.336;14.472;2023-04-03T06:43:45;9.97;;;2.67;;
63370;SDS011;49504;48.336;14.472;2023-04-03T06:47:08;7.95;;;2.53;;
63370;SDS011;49504;48.336;14.472;2023-04-03T06:50:32;9.75;;;2.70;;
63370;SDS011;49504;48.336;14.472;2023-04-03T06:53:53;7.95;;;2.72;;
63370;SDS011;49504;48.336;14.472;2023-04-03T06:57:16;7.22;;;2.42;;
63370;SDS011;49504;48.336;14.472;2023-04-03T07:00:37;5.65;;;2.10;;
63370;SDS011;49504;48.336;14.472;2023-04-03T07:04:00;6.60;;;2.13;;
63370;SDS011;49504;48.336;14.472;2023-04-03T07:07:21;5.55;;;1.90;;
63370;SDS011;49504;48.336;14.472;2023-04-03T07:10:42;4.43;;;1.75;;
63370;SDS011;49504;48.336;14.472;2023-04-03T07:14:03;4.53;;;1.70;;
63370;SDS011;49504;48.336;14.472;2023-04-03T07:17:24;5.55;;;1.85;;
63370;SDS011;49504;48.336;14.472;2023-04-03T07:20:47;5.78;;;2.17;;
63370;SDS011;49504;48.336;14.472;2023-04-03T07:24:08;7.88;;;2.42;;
63370;SDS011;49504;48.336;14.472;2023-04-03T07:27:29;4.78;;;1.80;;
63370;SDS011;49504;48.336;14.472;2023-04-03T07:30:51;6.88;;;2.17;;
63370;SDS011;49504;48.336;14.472;2023-04-03T07:34:14;6.90;;;2.10;;
63370;SDS011;49504;48.336;14.472;2023-04-03T07:37:37;6.90;;;2.28;;
63370;SDS011;49504;48.336;14.472;2023-04-03T07:40:58;5.30;;;1.60;;
63370;SDS011;49504;48.336;14.472;2023-04-03T07:44:19;3.90;;;1.50;;
63370;SDS011;49504;48.336;14.472;2023-04-03T07:47:40;5.03;;;1.60;;
63370;SDS011;49504;48.336;14.472;2023-04-03T07:51:01;4.70;;;1.83;;
63370;SDS011;49504;48.336;14.472;2023-04-03T07:54:25;5.32;;;1.85;;
63370;SDS011;49504;48.336;14.472;2023-04-03T07:57:46;4.72;;;1.45;;
63370;SDS011;49504;48.336;14.472;2023-04-03T08:04:31;3.67;;;1.45;;
63370;SDS011;49504;48.336;14.472;2023-04-03T08:07:53;4.03;;;1.48;;
63370;SDS011;49504;48.336;14.472;2023-04-03T08:11:14;5.18;;;1.63;;
63370;SDS011;49504;48.336;14.472;2023-04-03T08:14:35;3.47;;;1.40;;
63370;SDS011;49504;48.336;14.472;2023-04-03T08:17:56;5.50;;;1.88;;
63370;SDS011;49504;48.336;14.472;2023-04-03T08:21:19;4.35;;;1.30;;
63370;SDS011;49504;48.336;14.472;2023-04-03T08:24:40;6.38;;;1.88;;
63370;SDS011;49504;48.336;14.472;2023-04-03T08:28:02;3.28;;;1.20;;
63370;SDS011;49504;48.336;14.472;2023-04-03T08:31:23;4.03;;;1.50;;
63370;SDS011;49504;48.336;14.472;2023-04-03T08:34:44;5.18;;;1.75;;
63370;SDS011;49504;48.336;14.472;2023-04-03T08:38:07;3.70;;;1.60;;
63370;SDS011;49504;48.336;14.472;2023-04-03T08:41:29;4.55;;;1.88;;
63370;SDS011;49504;48.336;14.472;2023-04-03T08:44:54;3.42;;;1.17;;
63370;SDS011;49504;48.336;14.472;2023-04-03T08:48:23;4.07;;;1.42;;
63370;SDS011;49504;48.336;14.472;2023-04-03T08:51:48;4.43;;;1.67;;
63370;SDS011;49504;48.336;14.472;2023-04-03T08:55:16;4.35;;;1.45;;
63370;SDS011;49504;48.336;14.472;2023-04-03T08:58:46;4.68;;;1.40;;
63370;SDS011;49504;48.336;14.472;2023-04-03T09:02:20;3.75;;;1.42;;
63370;SDS011;49504;48.336;14.472;2023-04-03T09:05:47;4.10;;;1.33;;
63370;SDS011;49504;48.336;14.472;2023-04-03T09:09:12;5.43;;;1.52;;
63370;SDS011;49504;48.336;14.472;2023-04-03T09:12:41;4.30;;;1.58;;
63370;SDS011;49504;48.336;14.472;2023-04-03T09:16:12;4.80;;;1.52;;
63370;SDS011;49504;48.336;14.472;2023-04-03T09:19:47;4.55;;;1.48;;
63370;SDS011;49504;48.336;14.472;2023-04-03T09:23:15;4.53;;;1.10;;
63370;SDS011;49504;48.336;14.472;2023-04-03T09:26:44;3.58;;;1.40;;
63370;SDS011;49504;48.336;14.472;2023-04-03T09:30:14;3.40;;;1.35;;
63370;SDS011;49504;48.336;14.472;2023-04-03T09:33:37;3.28;;;1.20;;
63370;SDS011;49504;48.336;14.472;2023-04-03T09:36:59;3.70;;;1.13;;
63370;SDS011;49504;48.336;14.472;2023-04-03T09:40:33;3.45;;;1.40;;
63370;SDS011;49504;48.336;14.472;2023-04-03T09:43:56;3.75;;;1.17;;
63370;SDS011;49504;48.336;14.472;2023-04-03T09:47:21;2.63;;;1.00;;
63370;SDS011;49504;48.336;14.472;2023-04-03T09:50:53;3.47;;;1.10;;
63370;SDS011;49504;48.336;14.472;2023-04-03T09:54:24;3.03;;;1.00;;
63370;SDS011;49504;48.336;14.472;2023-04-03T09:57:52;3.15;;;1.20;;
63370;SDS011;49504;48.336;14.472;2023-04-03T10:01:21;3.00;;;1.13;;
63370;SDS011;49504;48.336;14.472;2023-04-03T10:04:48;3.95;;;1.00;;
63370;SDS011;49504;48.336;14.472;2023-04-03T10:08:14;3.13;;;1.25;;
63370;SDS011;49504;48.336;14.472;2023-04-03T10:11:56;3.88;;;1.20;;
63370;SDS011;49504;48.336;14.472;2023-04-03T10:15:22;2.75;;;1.23;;
63370;SDS011;49504;48.336;14.472;2023-04-03T10:18:59;3.35;;;1.15;;
63370;SDS011;49504;48.336;14.472;2023-04-03T10:22:39;3.15;;;1.02;;
63370;SDS011;49504;48.336;14.472;2023-04-03T10:26:15;4.50;;;1.10;;
63370;SDS011;49504;48.336;14.472;2023-04-03T10:29:49;2.47;;;0.98;;
63370;SDS011;49504;48.336;14.472;2023-04-03T10:33:19;2.30;;;0.80;;
63370;SDS011;49504;48.336;14.472;2023-04-03T10:36:50;3.42;;;0.98;;
63370;SDS011;49504;48.336;14.472;2023-04-03T10:40:26;2.53;;;0.98;;
63370;SDS011;49504;48.336;14.472;2023-04-03T10:43:54;3.60;;;1.15;;
63370;SDS011;49504;48.336;14.472;2023-04-03T10:47:30;3.00;;;0.95;;
63370;SDS011;49504;48.336;14.472;2023-04-03T10:51:00;3.65;;;1.10;;
63370;SDS011;49504;48.336;14.472;2023-04-03T10:54:36;2.97;;;1.17;;
63370;SDS011;49504;48.336;14.472;2023-04-03T10:58:00;3.10;;;0.90;;
63370;SDS011;49504;48.336;14.472;2023-04-03T11:01:22;3.13;;;1.00;;
63370;SDS011;49504;48.336;14.472;2023-04-03T11:04:51;2.70;;;1.08;;
63370;SDS011;49504;48.336;14.472;2023-04-03T11:08:21;3.53;;;1.00;;
63370;SDS011;49504;48.336;14.472;2023-04-03T11:11:50;3.15;;;0.90;;
63370;SDS011;49504;48.336;14.472;2023-04-03T11:15:17;2.78;;;0.90;;
63370;SDS011;49504;48.336;14.472;2023-04-03T11:18:42;4.80;;;1.20;;
63370;SDS011;49504;48.336;14.472;2023-04-03T11:22:09;3.53;;;1.00;;
63370;SDS011;49504;48.336;14.472;2023-04-03T11:25:41;3.47;;;1.23;;
63370;SDS011;49504;48.336;14.472;2023-04-03T11:29:07;2.83;;;0.90;;
63370;SDS011;49504;48.336;14.472;2023-04-03T11:32:48;2.83;;;0.80;;
63370;SDS011;49504;48.336;14.472;2023-04-03T11:36:26;3.35;;;0.93;;
63370;SDS011;49504;48.336;14.472;2023-04-03T11:39:51;3.03;;;1.00;;
63370;SDS011;49504;48.336;14.472;2023-04-03T11:43:21;2.72;;;0.90;;
63370;SDS011;49504;48.336;14.472;2023-04-03T11:46:52;3.67;;;0.98;;
63370;SDS011;49504;48.336;14.472;2023-04-03T11:58:11;3.97;;;1.13;;
63370;SDS011;49504;48.336;14.472;2023-04-03T12:01:44;4.22;;;1.30;;
63370;SDS011;49504;48.336;14.472;2023-04-03T12:05:28;5.05;;;1.40;;
63370;SDS011;49504;48.336;14.472;2023-04-03T12:08:50;3.20;;;1.30;;
63370;SDS011;49504;48.336;14.472;2023-04-03T12:12:22;38.78;;;11.65;;
63370;SDS011;49504;48.336;14.472;2023-04-03T12:15:57;46.38;;;16.08;;
63370;SDS011;49504;48.336;14.472;2023-04-03T12:19:35;33.80;;;11.10;;
63370;SDS011;49504;48.336;14.472;2023-04-03T12:23:08;53.80;;;21.98;;
63370;SDS011;49504;48.336;14.472;2023-04-03T12:26:46;40.88;;;15.85;;
63370;SDS011;49504;48.336;14.472;2023-04-03T12:30:13;27.52;;;10.23;;
63370;SDS011;49504;48.336;14.472;2023-04-03T12:33:46;20.27;;;8.48;;
63370;SDS011;49504;48.336;14.472;2023-04-03T12:37:39;18.83;;;6.80;;
63370;SDS011;49504;48.336;14.472;2023-04-03T12:41:18;18.05;;;5.85;;
63370;SDS011;49504;48.336;14.472;2023-04-03T12:44:51;12.73;;;5.28;;
63370;SDS011;49504;48.336;14.472;2023-04-03T12:48:22;14.63;;;6.18;;
63370;SDS011;49504;48.336;14.472;2023-04-03T12:51:47;16.23;;;10.15;;
63370;SDS011;49504;48.336;14.472;2023-04-03T12:55:14;17.20;;;11.02;;
63370;SDS011;49504;48.336;14.472;2023-04-03T12:58:37;15.57;;;10.18;;
63370;SDS011;49504;48.336;14.472;2023-04-03T13:01:59;16.73;;;10.30;;
63370;SDS011;49504;48.336;14.472;2023-04-03T13:05:21;12.55;;;7.13;;
63370;SDS011;49504;48.336;14.472;2023-04-03T13:08:48;10.52;;;5.30;;
63370;SDS011;49504;48.336;14.472;2023-04-03T13:12:11;10.48;;;4.80;;
63370;SDS011;49504;48.336;14.472;2023-04-03T13:15:42;8.30;;;3.67;;
63370;SDS011;49504;48.336;14.472;2023-04-03T13:19:06;9.90;;;3.97;;
63370;SDS011;49504;48.336;14.472;2023-04-03T13:22:36;9.15;;;3.75;;
63370;SDS011;49504;48.336;14.472;2023-04-03T13:26:06;8.98;;;3.50;;
63370;SDS011;49504;48.336;14.472;2023-04-03T13:29:29;7.50;;;2.85;;
63370;SDS011;49504;48.336;14.472;2023-04-03T13:32:53;7.13;;;3.00;;
63370;SDS011;49504;48.336;14.472;2023-04-03T13:36:16;6.07;;;2.67;;
63370;SDS011;49504;48.336;14.472;2023-04-03T13:39:41;5.93;;;2.70;;
63370;SDS011;49504;48.336;14.472;2023-04-03T13:43:04;7.55;;;2.60;;
63370;SDS011;49504;48.336;14.472;2023-04-03T13:46:36;5.78;;;2.55;;
63370;SDS011;49504;48.336;14.472;2023-04-03T13:50:00;5.80;;;2.40;;
63370;SDS011;49504;48.336;14.472;2023-04-03T13:53:25;7.32;;;2.50;;
63370;SDS011;49504;48.336;14.472;2023-04-03T13:56:52;7.15;;;2.75;;
63370;SDS011;49504;48.336;14.472;2023-04-03T14:03:59;5.78;;;2.47;;
63370;SDS011;49504;48.336;14.472;2023-04-03T14:07:31;5.35;;;2.58;;
63370;SDS011;49504;48.336;14.472;2023-04-03T14:10:52;6.95;;;2.58;;
63370;SDS011;49504;48.336;14.472;2023-04-03T14:14:14;6.22;;;2.17;;
63370;SDS011;49504;48.336;14.472;2023-04-03T14:17:38;4.72;;;2.13;;
63370;SDS011;49504;48.336;14.472;2023-04-03T14:21:00;5.30;;;2.25;;
63370;SDS011;49504;48.336;14.472;2023-04-03T14:24:23;4.22;;;2.03;;
63370;SDS011;49504;48.336;14.472;2023-04-03T14:27:45;5.63;;;1.83;;
63370;SDS011;49504;48.336;14.472;2023-04-03T17:00:52;3.72;;;1.25;;
63370;SDS011;49504;48.336;14.472;2023-04-03T17:04:13;4.00;;;1.40;;
63370;SDS011;49504;48.336;14.472;2023-04-03T17:07:34;3.78;;;1.52;;
63370;SDS011;49504;48.336;14.472;2023-04-03T17:10:55;4.10;;;1.33;;
63370;SDS011;49504;48.336;14.472;2023-04-03T17:14:16;3.42;;;1.17;;
63370;SDS011;49504;48.336;14.472;2023-04-03T17:17:39;2.95;;;1.30;;
63370;SDS011;49504;48.336;14.472;2023-04-03T17:21:00;3.42;;;1.30;;
63370;SDS011;49504;48.336;14.472;2023-04-03T17:24:22;3.10;;;1.23;;
63370;SDS011;49504;48.336;14.472;2023-04-03T17:27:43;3.60;;;1.38;;
63370;SDS011;49504;48.336;14.472;2023-04-03T17:31:04;3.00;;;1.20;;
63370;SDS011;49504;48.336;14.472;2023-04-03T17:34:29;3.22;;;1.25;;
63370;SDS011;49504;48.336;14.472;2023-04-03T17:37:50;2.92;;;1.00;;
63370;SDS011;49504;48.336;14.472;2023-04-03T17:41:11;2.60;;;0.90;;
63370;SDS011;49504;48.336;14.472;2023-04-03T17:44:33;4.75;;;1.58;;
63370;SDS011;49504;48.336;14.472;2023-04-03T17:47:54;3.90;;;1.40;;
63370;SDS011;49504;48.336;14.472;2023-04-03T17:51:17;5.18;;;1.40;;
63370;SDS011;49504;48.336;14.472;2023-04-03T17:54:40;4.22;;;1.20;;
63370;SDS011;49504;48.336;14.472;2023-04-03T17:58:02;3.30;;;1.13;;
63370;SDS011;49504;48.336;14.472;2023-04-03T18:01:24;3.03;;;1.08;;
63370;SDS011;49504;48.336;14.472;2023-04-03T18:04:49;3.75;;;1.35;;
63370;SDS011;49504;48.336;14.472;2023-04-03T18:08:12;2.92;;;1.30;;
63370;SDS011;49504;48.336;14.472;2023-04-03T18:11:33;2.53;;;0.93;;
63370;SDS011;49504;48.336;14.472;2023-04-03T18:14:55;3.90;;;1.25;;
63370;SDS011;49504;48.336;14.472;2023-04-03T18:18:18;4.35;;;1.30;;
63370;SDS011;49504;48.336;14.472;2023-04-03T18:21:39;2.47;;;1.00;;
63370;SDS011;49504;48.336;14.472;2023-04-03T18:25:02;3.10;;;1.13;;
63370;SDS011;49504;48.336;14.472;2023-04-03T18:28:24;3.38;;;1.10;;
63370;SDS011;49504;48.336;14.472;2023-04-03T18:31:47;2.75;;;1.13;;
63370;SDS011;49504;48.336;14.472;2023-04-03T18:35:10;3.10;;;1.27;;
63370;SDS011;49504;48.336;14.472;2023-04-03T18:38:32;2.90;;;1.10;;
63370;SDS011;49504;48.336;14.472;2023-04-03T18:44:28;3.30;;;1.10;;
63370;SDS011;49504;48.336;14.472;2023-04-03T18:47:52;3.20;;;1.10;;
63370;SDS011;49504;48.336;14.472;2023-04-03T18:51:14;2.95;;;0.90;;
63370;SDS011;49504;48.336;14.472;2023-04-03T18:54:35;3.45;;;1.17;;
63370;SDS011;49504;48.336;14.472;2023-04-03T18:57:56;3.65;;;1.10;;
63370;SDS011;49504;48.336;14.472;2023-04-03T19:01:19;3.50;;;1.30;;
63370;SDS011;49504;48.336;14.472;2023-04-03T19:04:40;3.15;;;1.08;;
63370;SDS011;49504;48.336;14.472;2023-04-03T19:08:02;2.80;;;0.98;;
63370;SDS011;49504;48.336;14.472;2023-04-03T19:11:23;4.15;;;1.08;;
63370;SDS011;49504;48.336;14.472;2023-04-03T19:14:45;3.00;;;0.88;;
63370;SDS011;49504;48.336;14.472;2023-04-03T19:21:07;2.83;;;0.98;;
63370;SDS011;49504;48.336;14.472;2023-04-03T19:24:28;2.63;;;0.98;;
63370;SDS011;49504;48.336;14.472;2023-04-03T19:27:49;3.20;;;0.90;;
63370;SDS011;49504;48.336;14.472;2023-04-03T19:31:11;2.72;;;0.90;;
63370;SDS011;49504;48.336;14.472;2023-04-03T19:34:34;3.30;;;1.33;;
63370;SDS011;49504;48.336;14.472;2023-04-03T19:37:56;3.40;;;1.00;;
63370;SDS011;49504;48.336;14.472;2023-04-03T19:41:18;2.83;;;1.15;;
63370;SDS011;49504;48.336;14.472;2023-04-03T19:44:41;2.58;;;0.95;;
63370;SDS011;49504;48.336;14.472;2023-04-03T19:48:02;2.75;;;0.90;;
63370;SDS011;49504;48.336;14.472;2023-04-03T19:51:24;3.15;;;1.10;;
63370;SDS011;49504;48.336;14.472;2023-04-03T19:54:47;3.22;;;1.27;;
63370;SDS011;49504;48.336;14.472;2023-04-03T19:58:08;4.07;;;0.90;;
63370;SDS011;49504;48.336;14.472;2023-04-03T20:01:30;2.67;;;1.02;;
63370;SDS011;49504;48.336;14.472;2023-04-03T20:04:52;3.17;;;1.02;;
63370;SDS011;49504;48.336;14.472;2023-04-03T20:08:13;2.83;;;1.02;;
63370;SDS011;49504;48.336;14.472;2023-04-03T20:11:36;2.50;;;0.93;;
63370;SDS011;49504;48.336;14.472;2023-04-03T20:14:57;2.75;;;1.02;;
63370;SDS011;49504;48.336;14.472;2023-04-03T20:18:19;3.50;;;1.00;;
63370;SDS011;49504;48.336;14.472;2023-04-03T20:21:40;3.60;;;1.13;;
63370;SDS011;49504;48.336;14.472;2023-04-03T20:25:01;5.68;;;1.33;;
63370;SDS011;49504;48.336;14.472;2023-04-03T20:28:25;2.78;;;1.05;;
63370;SDS011;49504;48.336;14.472;2023-04-03T20:31:46;2.72;;;1.10;;
63370;SDS011;49504;48.336;14.472;2023-04-03T20:35:07;3.38;;;1.17;;
63370;SDS011;49504;48.336;14.472;2023-04-03T20:39:38;2.55;;;1.00;;
63370;SDS011;49504;48.336;14.472;2023-04-03T20:42:59;2.83;;;1.17;;
63370;SDS011;49504;48.336;14.472;2023-04-03T20:46:20;4.03;;;1.42;;
63370;SDS011;49504;48.336;14.472;2023-04-03T20:49:41;4.68;;;1.30;;
63370;SDS011;49504;48.336;14.472;2023-04-03T20:53:02;2.92;;;1.00;;
63370;SDS011;49504;48.336;14.472;2023-04-03T20:56:25;3.60;;;1.27;;
63370;SDS011;49504;48.336;14.472;2023-04-03T20:59:50;2.63;;;1.02;;
63370;SDS011;49504;48.336;14.472;2023-04-03T21:03:11;3.35;;;1.20;;
63370;SDS011;49504;48.336;14.472;2023-04-03T21:19:28;2.70;;;1.17;;
63370;SDS011;49504;48.336;14.472;2023-04-03T21:22:49;3.05;;;1.33;;
63370;SDS011;49504;48.336;14.472;2023-04-03T21:26:10;2.53;;;0.88;;
63370;SDS011;49504;48.336;14.472;2023-04-03T21:29:32;3.00;;;0.93;;
63370;SDS011;49504;48.336;14.472;2023-04-03T21:32:53;2.67;;;0.80;;
63370;SDS011;49504;48.336;14.472;2023-04-03T21:36:15;2.80;;;1.00;;
63370;SDS011;49504;48.336;14.472;2023-04-03T21:39:36;3.00;;;1.10;;
63370;SDS011;49504;48.336;14.472;2023-04-03T21:42:57;3.20;;;1.15;;
63370;SDS011;49504;48.336;14.472;2023-04-03T21:46:18;2.78;;;1.10;;
63370;SDS011;49504;48.336;14.472;2023-04-03T21:49:39;2.70;;;1.00;;
63370;SDS011;49504;48.336;14.472;2023-04-03T21:53:02;2.90;;;1.10;;
63370;SDS011;49504;48.336;14.472;2023-04-03T21:56:23;2.58;;;1.00;;
63370;SDS011;49504;48.336;14.472;2023-04-03T21:59:44;3.15;;;1.13;;
63370;SDS011;49504;48.336;14.472;2023-04-03T22:03:05;2.60;;;0.90;;
63370;SDS011;49504;48.336;14.472;2023-04-03T22:06:26;2.60;;;0.90;;
63370;SDS011;49504;48.336;14.472;2023-04-03T22:09:49;2.33;;;0.98;;
63370;SDS011;49504;48.336;14.472;2023-04-03T22:13:10;3.20;;;1.33;;
63370;SDS011;49504;48.336;14.472;2023-04-03T22:16:32;2.50;;;0.98;;
63370;SDS011;49504;48.336;14.472;2023-04-03T22:19:53;2.15;;;0.80;;
63370;SDS011;49504;48.336;14.472;2023-04-03T22:23:14;3.22;;;1.05;;
63370;SDS011;49504;48.336;14.472;2023-04-03T22:26:37;2.88;;;1.20;;
63370;SDS011;49504;48.336;14.472;2023-04-03T22:29:58;2.80;;;0.80;;
63370;SDS011;49504;48.336;14.472;2023-04-03T22:33:19;3.13;;;1.30;;
63370;SDS011;49504;48.336;14.472;2023-04-03T22:36:40;2.67;;;1.02;;
63370;SDS011;49504;48.336;14.472;2023-04-03T22:40:01;3.30;;;1.17;;
63370;SDS011;49504;48.336;14.472;2023-04-03T22:43:24;3.05;;;1.02;;
63370;SDS011;49504;48.336;14.472;2023-04-03T22:46:46;2.95;;;1.15;;
63370;SDS011;49504;48.336;14.472;2023-04-03T22:50:08;2.13;;;0.80;;
63370;SDS011;49504;48.336;14.472;2023-04-03T22:53:30;2.50;;;1.00;;
63370;SDS011;49504;48.336;14.472;2023-04-03T22:56:51;2.85;;;1.02;;
63370;SDS011;49504;48.336;14.472;2023-04-03T23:00:14;2.90;;;1.00;;
63370;SDS011;49504;48.336;14.472;2023-04-03T23:03:37;2.88;;;1.00;;
63370;SDS011;49504;48.336;14.472;2023-04-03T23:06:59;2.53;;;0.95;;
63370;SDS011;49504;48.336;14.472;2023-04-03T23:10:20;2.25;;;0.80;;
63370;SDS011;49504;48.336;14.472;2023-04-03T23:13:42;3.22;;;1.00;;
63370;SDS011;49504;48.336;14.472;2023-04-03T23:17:04;2.55;;;0.85;;
63370;SDS011;49504;48.336;14.472;2023-04-03T23:20:25;2.17;;;0.70;;
63370;SDS011;49504;48.336;14.472;2023-04-03T23:23:46;2.65;;;0.90;;